Apple Valley, Minnesota
Current Conditions -  °F | °C
As of 3:24 PM on Thursday 18 Dec 2014 (Local Time) from KLVN Reporting Station
Overcast Overcast  
Wind Chill: 19°   Ceiling: 1700
Heat Index: 19°   Visibility: 10mi
Dew Point: 16°   Wind: 0mph
Humidity: 86%   Direction: NA
Pressure: 30.25"   Gusts: NA
Location:  44.74°N, 93.22°W
Report Text: KLVN 182124Z AUTO 00000KT 10SM OVC017 M07/M09 A3025 RMK AO2
Loading
Personal Weather Stations






























Interactive Weather Map New forecast layout! Learn more

10-Day Weather Forecast

Advertisements
Track Severe Weather on mobile